Flight Track Log - Related Links

Times and Time Zones

All times are in EDT time to prevent confusion due to time zone crossing. See the SWR487 flight status page for this flight to view local times or setup timezone preferences in your user account.

Time Position Orientation Groundspeed Altitude Reporting Facility
EDT Latitude Longitude Course Direction KTS MPH feet Rate Location/Type
Sun 03:04:37 PM 51.5060 0.0410 273° West 115 132 300  Level FlightAware ADS-B
Sun 03:04:57 PM 51.5060 0.0250 270° West 113 130 900 1,800 Climbing FlightAware ADS-B
Sun 03:05:17 PM 51.5070 0.0060 275° West 121 139 1,500 1,600 Climbing FlightAware ADS-B
Sun 03:05:27 PM 51.5080 -0.0030 280° West 122 140 1,700 960 Climbing FlightAware ADS-B
Sun 03:05:42 PM 51.5130 -0.0160 302° West 139 160 1,900 900 Climbing FlightAware ADS-B
Sun 03:05:47 PM 51.5150 -0.0200 309° West 147 169 2,000 900 Climbing FlightAware ADS-B
Sun 03:06:02 PM 51.5250 -0.0270 336° Northwest 155 178 2,200 857 Climbing FlightAware ADS-B
Sun 03:06:08 PM 51.5260 -0.0270 360° North 166 191 2,300 960 Climbing FlightAware ADS-B
Sun 03:06:27 PM 51.5450 -0.0360 344° North 193 222 2,600 818 Climbing FlightAware ADS-B
Sun 03:06:52 PM 51.5660 -0.0210 24° Northeast 228 262 2,900 600 Climbing FlightAware ADS-B
Sun 03:06:57 PM 51.5680 -0.0160 57° Northeast 230 265 2,900  Level FlightAware ADS-B
Sun 03:07:02 PM 51.5700 -0.0060 72° East 233 268 2,900 200 Level FlightAware ADS-B
Sun 03:07:27 PM 51.5770 0.0360 75° East 262 302 3,000  Climbing FlightAware ADS-B
Sun 03:07:37 PM 51.5810 0.0620 76° East 275 316 2,900  Descending FlightAware ADS-B
Sun 03:08:02 PM 51.5870 0.1030 77° East 275 316 3,000 1,067 Climbing FlightAware ADS-B
Sun 03:08:22 PM 51.5940 0.1470 76° East 279 321 3,700 2,057 Climbing FlightAware ADS-B
Sun 03:08:37 PM 51.5980 0.1820 80° East 281 323 4,200 1,800 Climbing FlightAware ADS-B
Sun 03:08:52 PM 51.5990 0.2130 87° East 284 327 4,600 1,535 Climbing FlightAware ADS-B
Sun 03:09:20 PM 51.5980 0.2710 92° East 289 333 5,300 1,500 Climbing FlightAware ADS-B
Sun 03:09:28 PM 51.5960 0.2880 101° East 287 330 5,500 1,071 Climbing FlightAware ADS-B
Sun 03:09:48 PM 51.5860 0.3250 113° Southeast 287 330 5,800 750 Climbing FlightAware ADS-B
Sun 03:10:00 PM 51.5790 0.3510 113° Southeast 287 330 5,900 176 Climbing FlightAware ADS-B
Sun 03:10:22 PM 51.5670 0.3940 114° Southeast 286 329 5,900  Level FlightAware ADS-B
Sun 03:10:40 PM 51.5570 0.4310 113° Southeast 287 330 5,900 667 Level FlightAware ADS-B
Sun 03:10:58 PM 51.5490 0.4600 114° Southeast 287 330 6,300 1,579 Climbing FlightAware ADS-B
Sun 03:11:18 PM 51.5380 0.5000 114° Southeast 295 339 6,900 2,000 Climbing FlightAware ADS-B
Sun 03:11:40 PM 51.5260 0.5440 114° Southeast 301 346 7,700 2,000 Climbing FlightAware ADS-B
Sun 03:12:00 PM 51.5150 0.5850 113° Southeast 305 351 8,300 2,125 Climbing FlightAware ADS-B
Sun 03:12:28 PM 51.4960 0.6503 115° Southeast 311 358 9,400 2,233 Climbing FlightAware ADS-B
Sun 03:12:43 PM 51.4871 0.6842 113° Southeast 313 360 9,900 1,636 Climbing FlightAware ADS-B
Sun 03:13:12 PM 51.4700 0.7451 114° Southeast 328 377 10,600 1,532 Climbing FlightAware ADS-B
Sun 03:13:30 PM 51.4608 0.7864 110° East 332 382 11,100 1,625 Climbing FlightAware ADS-B
Sun 03:14:00 PM 51.4468 0.8585 107° East 342 394 11,900 1,810 Climbing FlightAware ADS-B
Sun 03:14:33 PM 51.4319 0.9412 106° East 344 396 13,000 1,714 Climbing FlightAware ADS-B
Sun 03:15:10 PM 51.4150 1.0307 107° East 346 398 13,900 1,360 Climbing FlightAware ADS-B
Sun 03:15:48 PM 51.3965 1.1272 107° East 367 422 14,700 1,412 Climbing FlightAware ADS-B
Sun 03:16:18 PM 51.3812 1.2086 107° East 372 428 15,500 1,524 Climbing FlightAware ADS-B
Sun 03:16:51 PM 51.3649 1.2932 107° East 375 432 16,300 1,304 Climbing FlightAware ADS-B
Sun 03:17:27 PM 51.3459 1.3924 107° East 383 441 17,000 1,254 Climbing FlightAware ADS-B
Sun 03:17:58 PM 51.3298 1.4738 108° East 386 444 17,700 1,333 Climbing FlightAware ADS-B
Sun 03:18:30 PM 51.3128 1.5611 107° East 388 447 18,400 1,235 Climbing FlightAware ADS-B
Sun 03:19:06 PM 51.2932 1.6634 107° East 348 400 19,100 1,105 Climbing FlightAware UK
Sun 03:19:08 PM 51.2940 1.6550 107° East 390 449 19,100 1,135 Level FlightAware ADS-B
Sun 03:19:43 PM 51.2750 1.7520 107° East 393 452 19,800 1,200 Climbing FlightAware ADS-B
Sun 03:20:13 PM 51.2590 1.8380 107° East 395 455 20,400 1,200 Climbing FlightAware ADS-B
Sun 03:20:18 PM 51.2535 1.8645 107° East 356 410 20,500 1,029 Climbing FlightAware UK
Sun 03:20:48 PM 51.2369 1.9487 107° East 358 412 21,000 1,000 Climbing FlightAware UK
Sun 03:20:48 PM 51.2380 1.9420 107° East 400 460 21,000 857 Level FlightAware ADS-B
Sun 03:21:23 PM 51.2200 2.0330 107° East 405 466 21,500 833 Climbing FlightAware ADS-B
Sun 03:21:24 PM 51.2163 2.0507 107° East 360 414 21,500 750 Level FlightAware UK
Sun 03:21:55 PM 51.1988 2.1383 107° East 364 419 21,900 769 Climbing FlightAware UK
Sun 03:22:03 PM 51.1990 2.1400 107° East 410 472 22,000 632 Climbing FlightAware ADS-B
Sun 03:22:33 PM 51.1800 2.2330 108° East 420 483 22,300 738 Climbing FlightAware ADS-B
Sun 03:23:08 PM 51.1570 2.3460 108° East 425 489 22,800 771 Climbing FlightAware ADS-B
Sun 03:23:43 PM 51.1370 2.4440 108° East 428 493 23,200 649 Climbing FlightAware ADS-B
Sun 03:24:22 PM 51.1120 2.5650 108° East 437 503 23,600 608 Climbing FlightAware ADS-B
Sun 03:25:02 PM 51.0810 2.6910 111° Southeast 439 505 24,000 640 Climbing FlightAware ADS-B
Sun 03:25:37 PM 51.0440 2.7840 122° Southeast 438 504 24,400 686 Climbing FlightAware ADS-B
Sun 03:26:12 PM 51.0040 2.8840 122° Southeast 439 505 24,800 667 Climbing FlightAware ADS-B
Sun 03:26:13 PM 51.0016 2.8891 122° Southeast 390 449 24,800 581 Level FlightAware UK
Sun 03:26:43 PM 50.9681 2.9700 122° Southeast 386 444 25,100 769 Climbing FlightAware UK
Sun 03:26:52 PM 50.9610 2.9860 122° Southeast 441 507 25,300 783 Climbing FlightAware ADS-B
Sun 03:27:29 PM 50.9210 3.0840 123° Southeast 441 507 25,700 692 Climbing FlightAware ADS-B
Sun 03:28:10 PM 50.8730 3.2000 123° Southeast 442 509 26,200 701 Climbing FlightAware ADS-B
Sun 03:28:46 PM 50.8330 3.2970 123° Southeast 441 507 26,600 676 Climbing FlightAware ADS-B
Sun 03:29:21 PM 50.7930 3.3910 124° Southeast 440 506 27,000 706 Climbing FlightAware ADS-B
Sun 03:29:54 PM 50.7570 3.4770 123° Southeast 439 505 27,400 686 Climbing FlightAware ADS-B
Sun 03:30:31 PM 50.7125 3.5850 123° Southeast 380 437 27,800 750 Climbing FlightAware UK
Sun 03:30:34 PM 50.7110 3.5860 123° Southeast 437 503 27,900 811 Climbing FlightAware ADS-B
Sun 03:31:08 PM 50.6730 3.6770 123° Southeast 436 502 28,300 618 Climbing FlightAware ADS-B
Sun 03:31:42 PM 50.6350 3.7660 124° Southeast 435 501 28,600 583 Climbing FlightAware ADS-B
Sun 03:32:20 PM 50.5920 3.8690 123° Southeast 436 502 29,000 329 Climbing FlightAware ADS-B
Sun 03:32:55 PM 50.5506 3.9644 123° Southeast 376 433 29,000  Level FlightAware UK
Sun 03:32:55 PM 50.5640 3.9350 123° Southeast 441 507 29,000  Level FlightAware ADS-B
Sun 03:33:29 PM 50.5130 4.0550 124° Southeast 454 522 29,000  Level FlightAware ADS-B
Sun 03:34:09 PM 50.4660 4.1650 124° Southeast 462 532 29,000  Level FlightAware ADS-B
Sun 03:34:43 PM 50.4260 4.2560 124° Southeast 460 529 29,000  Level FlightAware ADS-B
Sun 03:34:44 PM 50.4217 4.2598 124° Southeast 1 1 29,000  Level FlightAware UK
Sun 03:35:14 PM 50.3899 4.3517 124° Southeast 1 1 29,000  Level FlightAware UK
Sun 03:35:25 PM 50.3760 4.3730 124° Southeast 459 528 29,000  Level FlightAware ADS-B
Sun 03:35:57 PM 50.3380 4.4580 125° Southeast 459 528 29,000  Level FlightAware ADS-B
Sun 03:36:40 PM 50.2850 4.5810 124° Southeast 459 528 29,000  Level FlightAware ADS-B
Sun 03:37:20 PM 50.2380 4.6880 124° Southeast 458 527 29,000 -86 Level FlightAware ADS-B
Sun 03:37:50 PM 50.2006 4.7734 124° Southeast 1 1 28,900  Descending FlightAware UK
Sun 03:37:54 PM 50.1960 4.7830 124° Southeast 457 526 29,000 154 Climbing FlightAware ADS-B
Sun 03:38:29 PM 50.1570 4.8720 124° Southeast 456 525 29,000  Level FlightAware ADS-B
Sun 03:39:01 PM 50.1160 4.9650 124° Southeast 455 524 29,000  Level FlightAware ADS-B
Sun 03:39:42 PM 50.0690 5.0700 125° Southeast 457 526 29,000  Level FlightAware ADS-B
Sun 03:40:21 PM 50.0210 5.1780 125° Southeast 457 526 29,000  Level FlightAware ADS-B
Sun 03:40:57 PM 49.9770 5.2770 125° Southeast 454 522 29,000  Level FlightAware ADS-B
Sun 03:41:27 PM 49.9410 5.3570 125° Southeast 453 521 29,000  Level FlightAware ADS-B
Sun 03:42:02 PM 49.9000 5.4480 125° Southeast 452 520 29,000  Level FlightAware ADS-B
Sun 03:42:38 PM 49.8580 5.5400 125° Southeast 452 520 29,000  Level FlightAware ADS-B
Sun 03:43:07 PM 49.8220 5.6200 125° Southeast 453 521 29,000  Level FlightAware ADS-B
Sun 03:43:36 PM 49.7880 5.6940 125° Southeast 455 524 29,000  Level FlightAware ADS-B
Sun 03:44:19 PM 49.7370 5.8060 125° Southeast 454 522 29,000  Level FlightAware ADS-B
Sun 03:44:53 PM 49.6950 5.8850 129° Southeast 445 512 29,000  Level FlightAware ADS-B
Sun 03:45:29 PM 49.6340 5.9620 141° Southeast 434 499 29,000  Level FlightAware ADS-B
Sun 03:46:00 PM 49.5820 6.0230 143° Southeast 439 505 29,000  Level FlightAware ADS-B
Sun 03:46:35 PM 49.5260 6.0870 143° Southeast 438 504 29,000  Level FlightAware ADS-B
Sun 03:47:11 PM 49.4660 6.1590 142° Southeast 439 505 29,000  Level FlightAware ADS-B
Sun 03:47:49 PM 49.4040 6.2310 143° Southeast 440 506 29,000  Level FlightAware ADS-B
Sun 03:48:21 PM 49.3510 6.2940 142° Southeast 438 504 29,000  Level FlightAware ADS-B
Sun 03:49:01 PM 49.2880 6.3670 143° Southeast 438 504 29,000  Level FlightAware ADS-B
Sun 03:49:37 PM 49.2310 6.4320 143° Southeast 434 499 29,000  Level FlightAware ADS-B
Sun 03:50:07 PM 49.1780 6.4760 152° Southeast 422 486 29,000  Level FlightAware ADS-B
Sun 03:50:43 PM 49.1140 6.5190 156° South 420 483 29,000  Level FlightAware ADS-B
Sun 03:51:17 PM 49.0530 6.5590 157° South 420 483 29,000  Level FlightAware ADS-B
Sun 03:51:55 PM 48.9850 6.6040 157° South 420 483 29,000  Level FlightAware ADS-B
Sun 03:52:29 PM 48.9240 6.6450 156° South 421 484 29,000  Level FlightAware ADS-B
Sun 03:53:02 PM 48.8660 6.6840 156° South 420 483 29,000 -833 Level FlightAware ADS-B
Sun 03:53:41 PM 48.7960 6.7300 157° South 423 487 28,000 -1,739 Descending FlightAware ADS-B
Sun 03:54:11 PM 48.7440 6.7630 157° South 426 490 27,000 -2,206 Descending FlightAware ADS-B
Sun 03:54:49 PM 48.6730 6.8110 156° South 428 493 25,500 -2,270 Descending FlightAware ADS-B
Sun 03:55:25 PM 48.6090 6.8530 157° South 430 495 24,200 -2,294 Descending FlightAware ADS-B
Sun 03:55:57 PM 48.5500 6.8920 156° South 422 486 22,900 -2,382 Descending FlightAware ADS-B
Sun 03:56:33 PM 48.4870 6.9320 157° South 403 464 21,500 -2,229 Descending FlightAware ADS-B
Sun 03:57:07 PM 48.4330 6.9670 157° South 402 463 20,300 -2,261 Descending FlightAware ADS-B
Sun 03:57:42 PM 48.3690 7.0090 156° South 384 442 18,900 -2,219 Descending FlightAware ADS-B
Sun 03:58:20 PM 48.3080 7.0470 157° South 384 442 17,600 -2,197 Descending FlightAware ADS-B
Sun 03:58:53 PM 48.2510 7.0810 158° South 380 437 16,300 -2,276 Descending FlightAware ADS-B
Sun 03:59:18 PM 48.2110 7.1120 153° Southeast 377 434 15,400 -2,123 Descending FlightAware ADS-B
Sun 03:59:58 PM 48.1600 7.1750 141° Southeast 362 417 14,000 -1,680 Descending FlightAware ADS-B
Sun 04:00:33 PM 48.1160 7.2310 140° Southeast 331 381 13,300 -1,364 Descending FlightAware ADS-B
Sun 04:01:04 PM 48.0810 7.2780 138° Southeast 321 369 12,500 -1,690 Descending FlightAware ADS-B
Sun 04:01:44 PM 48.0400 7.3430 133° Southeast 317 365 11,300 -1,800 Descending FlightAware ADS-B
Sun 04:02:14 PM 48.0120 7.3920 130° Southeast 299 344 10,400 -1,680 Descending FlightAware ADS-B
Sun 04:02:34 PM 47.9960 7.4200 130° Southeast 292 336 9,900 -1,714 Descending FlightAware ADS-B
Sun 04:02:49 PM 47.9810 7.4450 132° Southeast 278 320 9,400 -1,800 Descending FlightAware ADS-B
Sun 04:03:14 PM 47.9620 7.4780 131° Southeast 258 297 8,700 -1,467 Descending FlightAware ADS-B
Sun 04:03:34 PM 47.9460 7.5060 130° Southeast 258 297 8,300 -1,350 Descending FlightAware ADS-B
Sun 04:03:54 PM 47.9300 7.5340 130° Southeast 257 296 7,800 -1,440 Descending FlightAware ADS-B
Sun 04:03:59 PM 47.9250 7.5410 137° Southeast 247 284 7,700 -1,200 Descending FlightAware ADS-B
Sun 04:04:09 PM 47.9160 7.5480 152° Southeast 238 274 7,500 -1,200 Descending FlightAware ADS-B
Sun 04:04:14 PM 47.9100 7.5500 167° South 234 269 7,400 -1,200 Descending FlightAware ADS-B
Sun 04:04:19 PM 47.9040 7.5500 180° South 227 261 7,300 -1,200 Descending FlightAware ADS-B
Sun 04:04:29 PM 47.8940 7.5470 191° South 229 264 7,100 -1,200 Descending FlightAware ADS-B
Sun 04:04:34 PM 47.8890 7.5420 214° Southwest 229 264 7,000 -800 Descending FlightAware ADS-B
Sun 04:04:44 PM 47.8820 7.5310 227° Southwest 232 267 6,900 -800 Descending FlightAware ADS-B
Sun 04:04:49 PM 47.8780 7.5230 233° Southwest 234 269 6,800 -1,000 Descending FlightAware ADS-B
Sun 04:05:14 PM 47.8650 7.4900 240° Southwest 231 266 6,400 -1,227 Descending FlightAware ADS-B
Sun 04:05:33 PM 47.8530 7.4610 238° Southwest 235 270 5,900 -1,412 Descending FlightAware ADS-B
Sun 04:05:48 PM 47.8470 7.4470 237° Southwest 235 270 5,600 -1,600 Descending FlightAware ADS-B
Sun 04:06:03 PM 47.8360 7.4220 237° Southwest 242 278 5,100 -1,500 Descending FlightAware ADS-B
Sun 04:06:36 PM 47.8010 7.4030 200° South 233 268 4,400 -1,222 Descending FlightAware ADS-B
Sun 04:06:57 PM 47.7830 7.3990 188° South 213 245 4,000 -720 Descending FlightAware ADS-B
Sun 04:07:26 PM 47.7550 7.4120 163° South 193 222 3,800 -474 Descending FlightAware ADS-B
Sun 04:07:35 PM 47.7460 7.4180 156° South 185 213 3,700 -882 Descending FlightAware ADS-B
Sun 04:08:00 PM 47.7270 7.4320 154° Southeast 185 213 3,300 -982 Descending FlightAware ADS-B
Sun 04:08:30 PM 47.7040 7.4490 154° Southeast 162 186 2,800 -1,080 Descending FlightAware ADS-B
Sun 04:08:50 PM 47.6910 7.4580 155° Southeast 146 168 2,400 -1,161 Descending FlightAware ADS-B
Sun 04:09:01 PM 47.6840 7.4630 154° Southeast 145 167 2,200 -833 Descending FlightAware ADS-B
Sun 04:09:26 PM 47.6690 7.4740 154° Southeast 142 163 1,900 -818 Descending FlightAware ADS-B
Sun 04:09:45 PM 47.6570 7.4820 156° South 132 152 1,600 -750 Descending FlightAware ADS-B
Sun 04:09:58 PM 47.6520 7.4860 152° Southeast 128 147 1,500 -600 Descending FlightAware ADS-B
Sun 04:10:15 PM 47.6410 7.4940 154° Southeast 127 146 1,300 -811 Descending FlightAware ADS-B
Sun 04:10:35 PM 47.6290 7.5020 156° South 124 143 1,000 -750 Descending FlightAware ADS-B
Sun 04:10:55 PM 47.6190 7.5090 155° Southeast 122 140 800 -327 Descending FlightAware ADS-B
Sun 04:11:30 PM 47.6050 7.5190 154° Southeast 113 130 700 -171 Descending FlightAware ADS-B

Login

Don't have an account? Register now (free) for customized features, flight alerts, and more!